createdAt,value
2018-12-03T00:03:51.843Z,8.60
2018-12-03T00:08:56.410Z,8.70
2018-12-03T00:14:01.050Z,8.70
2018-12-03T00:19:12.153Z,8.70
2018-12-03T00:24:23.407Z,8.70
2018-12-03T00:29:27.972Z,8.60
2018-12-03T00:34:32.487Z,8.70
2018-12-03T00:39:36.817Z,8.60
2018-12-03T00:44:41.470Z,8.60
2018-12-03T00:49:46.228Z,8.70
2018-12-03T00:54:50.735Z,8.80
2018-12-03T00:59:55.362Z,8.80
2018-12-03T01:05:00.728Z,8.80
2018-12-03T01:10:06.935Z,8.90
2018-12-03T01:15:11.375Z,8.80
2018-12-03T01:20:16.013Z,9.00
2018-12-03T01:25:20.565Z,9.20
2018-12-03T01:30:25.078Z,9.30
2018-12-03T01:35:29.622Z,9.40
2018-12-03T01:40:34.272Z,9.50
2018-12-03T01:45:38.767Z,9.70
2018-12-03T01:50:43.609Z,9.80
2018-12-03T01:55:48.075Z,9.70
2018-12-03T02:00:52.801Z,9.40
2018-12-03T02:05:57.306Z,9.40
2018-12-03T02:11:09.339Z,9.40
2018-12-03T02:16:14.110Z,9.50
2018-12-03T02:21:18.830Z,10.10
2018-12-03T02:26:23.401Z,10.30
2018-12-03T02:31:28.022Z,10.40
2018-12-03T02:36:33.305Z,10.30
2018-12-03T02:41:38.365Z,10.40
2018-12-03T02:46:43.061Z,10.50
2018-12-03T02:51:47.653Z,10.60
2018-12-03T02:56:52.186Z,10.60
2018-12-03T03:01:57.021Z,10.50
2018-12-03T03:07:01.638Z,10.50
2018-12-03T03:12:06.241Z,10.50
2018-12-03T03:17:11.305Z,10.50
2018-12-03T03:22:15.958Z,10.40
2018-12-03T03:27:20.509Z,10.30
2018-12-03T03:32:25.082Z,10.30
2018-12-03T03:37:29.997Z,10.30
2018-12-03T03:42:34.675Z,10.20
2018-12-03T03:47:40.177Z,10.20
2018-12-03T03:52:46.166Z,10.10
2018-12-03T03:57:50.928Z,10.20
2018-12-03T04:02:55.519Z,10.20
2018-12-03T04:08:00.226Z,10.20
2018-12-03T04:13:05.280Z,10.20
2018-12-03T04:18:10.295Z,10.20
2018-12-03T04:23:15.360Z,10.20
2018-12-03T04:28:20.266Z,10.30
2018-12-03T04:33:25.001Z,10.30
2018-12-03T04:38:30.141Z,10.30
2018-12-03T04:43:35.566Z,10.40
2018-12-03T04:48:41.035Z,10.40
2018-12-03T04:53:46.662Z,10.50
2018-12-03T04:58:55.310Z,10.50
2018-12-03T05:04:00.909Z,10.50
2018-12-03T05:09:08.166Z,10.50
2018-12-03T05:14:12.701Z,10.60
2018-12-03T05:19:17.236Z,10.80
2018-12-03T05:24:23.009Z,10.80
2018-12-03T05:29:27.754Z,10.80
2018-12-03T05:34:32.715Z,10.90
2018-12-03T05:39:37.200Z,10.80
2018-12-03T05:44:41.858Z,10.70
2018-12-03T05:49:47.025Z,10.60
2018-12-03T05:54:51.634Z,10.70
2018-12-03T06:00:04.162Z,10.90
2018-12-03T06:05:09.678Z,10.90
2018-12-03T06:10:18.213Z,10.90
2018-12-03T06:15:22.898Z,10.80
2018-12-03T06:20:27.642Z,10.80
2018-12-03T06:25:32.357Z,10.90
2018-12-03T06:30:37.593Z,10.80
2018-12-03T06:35:41.933Z,10.80
2018-12-03T06:40:47.149Z,10.90
2018-12-03T06:45:52.015Z,10.80
2018-12-03T06:50:57.758Z,10.70
2018-12-03T06:56:02.184Z,10.70
2018-12-03T07:01:07.850Z,10.60
2018-12-03T07:06:14.212Z,10.60
2018-12-03T07:11:19.129Z,10.60
2018-12-03T07:16:23.361Z,10.60
2018-12-03T07:21:27.926Z,10.60
2018-12-03T07:26:32.520Z,10.60
2018-12-03T07:31:37.034Z,10.70
2018-12-03T07:36:41.633Z,10.70
2018-12-03T07:41:47.502Z,10.60
2018-12-03T07:46:51.987Z,10.70
2018-12-03T07:51:56.558Z,10.70
2018-12-03T07:57:01.077Z,10.70
2018-12-03T08:02:06.119Z,10.70
2018-12-03T08:07:11.189Z,10.80
2018-12-03T08:12:15.654Z,11.00
2018-12-03T08:17:20.094Z,11.10
2018-12-03T08:22:24.632Z,11.40
2018-12-03T08:27:29.276Z,11.50
2018-12-03T08:32:34.526Z,11.60
2018-12-03T08:37:38.976Z,11.70
2018-12-03T08:42:55.178Z,11.70
2018-12-03T08:47:59.926Z,11.70
2018-12-03T08:53:05.386Z,11.60
2018-12-03T08:58:15.137Z,11.80
2018-12-03T09:03:26.370Z,11.90
2018-12-03T09:08:30.866Z,11.90
2018-12-03T09:13:35.528Z,12.00
2018-12-03T09:18:41.187Z,12.00
2018-12-03T09:23:46.920Z,11.90
2018-12-03T09:28:52.049Z,12.00
2018-12-03T09:33:58.050Z,12.00
2018-12-03T09:39:14.809Z,12.10
2018-12-03T09:44:19.339Z,12.20
2018-12-03T09:49:23.750Z,12.40
2018-12-03T09:54:28.417Z,12.30
2018-12-03T09:59:32.932Z,12.30
2018-12-03T10:04:40.118Z,12.20
2018-12-03T10:09:44.662Z,12.20
2018-12-03T10:14:48.993Z,12.20
2018-12-03T10:19:53.582Z,12.30
2018-12-03T10:24:59.340Z,12.40
2018-12-03T10:31:44.429Z,12.50
2018-12-03T10:36:56.753Z,12.60
2018-12-03T10:42:07.194Z,12.60
2018-12-03T10:47:11.982Z,12.60
2018-12-03T10:52:19.836Z,12.60
2018-12-03T10:57:24.532Z,12.60
2018-12-03T11:02:38.620Z,12.70
2018-12-03T11:07:43.366Z,12.70
2018-12-03T11:12:53.004Z,12.80
2018-12-03T11:17:58.507Z,12.90
2018-12-03T11:23:03.733Z,13.00
2018-12-03T11:28:10.321Z,13.00
2018-12-03T11:33:19.209Z,12.90
2018-12-03T11:38:32.061Z,12.90
2018-12-03T11:43:37.580Z,12.90
2018-12-03T11:48:41.960Z,12.90
2018-12-03T11:53:46.465Z,12.90
2018-12-03T11:58:52.067Z,13.10
2018-12-03T12:03:56.596Z,13.20
2018-12-03T12:09:01.143Z,13.20
2018-12-03T12:14:10.614Z,13.20
2018-12-03T12:19:15.511Z,13.20
2018-12-03T12:24:20.435Z,13.30
2018-12-03T12:29:25.429Z,13.50
2018-12-03T12:34:30.041Z,13.60
2018-12-03T12:39:35.989Z,13.60
2018-12-03T12:44:40.720Z,13.50
2018-12-03T12:49:44.948Z,13.50
2018-12-03T12:54:49.512Z,13.90
2018-12-03T12:59:54.089Z,13.70
2018-12-03T13:04:58.896Z,13.20
2018-12-03T13:10:03.643Z,13.30
2018-12-03T13:15:37.695Z,13.60
2018-12-03T13:20:42.583Z,13.80
2018-12-03T13:25:46.265Z,13.60
2018-12-03T13:30:51.706Z,13.40
2018-12-03T13:35:55.432Z,13.20
2018-12-03T13:41:00.254Z,13.10
2018-12-03T13:46:05.351Z,12.90
2018-12-03T13:51:08.775Z,12.80
2018-12-03T13:56:15.404Z,12.80
2018-12-03T14:01:19.194Z,12.90
2018-12-03T14:06:24.159Z,13.00
2018-12-03T14:11:29.257Z,12.80
2018-12-03T14:16:33.716Z,12.60
2018-12-03T14:21:38.308Z,12.60
2018-12-03T14:26:43.443Z,12.60
2018-12-03T14:31:47.197Z,12.60
2018-12-03T14:36:51.587Z,12.50
2018-12-03T14:41:56.756Z,12.50
2018-12-03T14:47:01.961Z,12.50
2018-12-03T14:52:06.749Z,12.40
2018-12-03T14:57:11.495Z,12.40
2018-12-03T15:02:16.374Z,12.50
2018-12-03T15:07:21.731Z,12.60
2018-12-03T15:12:26.621Z,12.60
2018-12-03T15:17:31.466Z,12.50
2018-12-03T15:22:36.861Z,12.50
2018-12-03T15:27:41.328Z,12.50
2018-12-03T15:32:47.926Z,12.40
2018-12-03T15:37:52.599Z,12.60
2018-12-03T15:42:56.165Z,12.60
2018-12-03T15:48:01.318Z,12.50
2018-12-03T15:53:05.648Z,12.50
2018-12-03T15:58:09.966Z,12.50
2018-12-03T16:03:14.419Z,12.60
2018-12-03T16:08:19.244Z,12.50
2018-12-03T16:13:22.918Z,12.60
2018-12-03T16:18:26.554Z,12.60
2018-12-03T16:23:31.324Z,12.60
2018-12-03T16:28:35.820Z,12.60
2018-12-03T16:33:40.245Z,12.50
2018-12-03T16:38:44.871Z,12.50
2018-12-03T16:43:48.802Z,12.50
2018-12-03T16:48:54.080Z,12.40
2018-12-03T16:53:58.645Z,12.50
2018-12-03T16:59:03.520Z,12.50
2018-12-03T17:04:07.575Z,12.50
2018-12-03T17:09:12.788Z,12.60
2018-12-03T17:14:16.580Z,12.70
2018-12-03T17:19:21.168Z,12.70
2018-12-03T17:24:25.720Z,12.60
2018-12-03T17:29:29.225Z,12.50
2018-12-03T17:34:32.987Z,12.70
2018-12-03T17:39:36.577Z,12.60
2018-12-03T17:44:41.233Z,12.60
2018-12-03T17:49:45.060Z,12.40
2018-12-03T17:54:48.609Z,12.40
2018-12-03T17:59:53.555Z,12.40
2018-12-03T18:04:57.052Z,12.40
2018-12-03T18:10:01.452Z,12.40
2018-12-03T18:15:06.943Z,12.60
2018-12-03T18:20:10.393Z,12.70
2018-12-03T18:25:14.795Z,12.10
2018-12-03T18:30:18.742Z,11.80
2018-12-03T18:35:22.302Z,11.50
2018-12-03T18:40:26.491Z,11.50
2018-12-03T18:45:30.990Z,11.50
2018-12-03T18:50:35.118Z,11.60
2018-12-03T18:55:39.503Z,11.40
2018-12-03T19:00:42.951Z,11.20
2018-12-03T19:05:47.482Z,11.10
2018-12-03T19:10:52.152Z,11.00
2018-12-03T19:16:01.298Z,11.00
2018-12-03T19:21:06.100Z,11.20
2018-12-03T19:26:10.576Z,11.10
2018-12-03T19:31:15.494Z,11.00
2018-12-03T19:36:20.888Z,10.90
2018-12-03T19:41:25.585Z,10.80
2018-12-03T19:46:30.665Z,10.70
2018-12-03T19:51:35.516Z,10.80
2018-12-03T19:56:40.366Z,10.70
2018-12-03T20:01:45.592Z,10.80
2018-12-03T20:06:49.671Z,11.00
2018-12-03T20:11:54.484Z,10.90
2018-12-03T20:16:59.532Z,11.00
2018-12-03T20:22:05.280Z,11.00
2018-12-03T20:27:09.014Z,11.00
2018-12-03T20:32:12.506Z,11.00
2018-12-03T20:37:20.093Z,11.00
2018-12-03T20:42:24.119Z,11.00
2018-12-03T20:47:28.647Z,11.00
2018-12-03T20:52:32.562Z,11.00
2018-12-03T20:57:36.215Z,11.00
2018-12-03T21:02:40.117Z,10.80
2018-12-03T21:07:44.713Z,10.70
2018-12-03T21:12:48.948Z,10.70
2018-12-03T21:17:52.474Z,10.70
2018-12-03T21:22:57.465Z,10.70
2018-12-03T21:28:04.054Z,10.70
2018-12-03T21:33:08.124Z,10.70
2018-12-03T21:38:11.841Z,10.90
2018-12-03T21:43:16.697Z,10.80
2018-12-03T21:48:21.427Z,10.80
2018-12-03T21:53:25.510Z,10.80
2018-12-03T21:58:30.349Z,10.80
2018-12-03T22:03:33.997Z,10.60
2018-12-03T22:08:38.468Z,10.50
2018-12-03T22:13:43.939Z,10.40
2018-12-03T22:18:47.600Z,10.30
2018-12-03T22:23:52.496Z,10.30
2018-12-03T22:28:56.139Z,10.30
2018-12-03T22:34:00.958Z,10.10
2018-12-03T22:39:05.836Z,10.00
2018-12-03T22:44:10.433Z,10.00
2018-12-03T22:49:15.442Z,10.00
2018-12-03T22:54:20.358Z,10.10
2018-12-03T22:59:25.245Z,9.90
2018-12-03T23:04:32.539Z,9.80
2018-12-03T23:09:37.294Z,9.70
2018-12-03T23:14:42.086Z,9.60
2018-12-03T23:19:46.679Z,9.60
2018-12-03T23:24:51.807Z,9.40
2018-12-03T23:29:56.808Z,9.20
2018-12-03T23:35:00.295Z,9.30
2018-12-03T23:40:05.192Z,9.30
2018-12-03T23:45:08.678Z,9.20
2018-12-03T23:50:12.389Z,9.10
2018-12-03T23:55:15.983Z,9.10
